Onley, Virginia
Current Conditions -  °F | °C
As of 11:55 AM on Saturday 22 Nov 2014 (Local Time) from KMFV Reporting Station
Clear Clear  
Wind Chill:   Ceiling: Unl
Heat Index:   Visibility: 10mi
Dew Point: -7°   Wind: 9mph
Humidity: 34%   Direction: 250°WSW
Pressure: 30.5"   Gusts: NA
Location:  37.69°N, 75.72°W
Report Text: KMFV 221655Z AUTO 25008KT 10SM CLR 08/M07 A3050 RMK AO2
Loading
Personal Weather Stations






























Interactive Weather Map New forecast layout! Learn more

10-Day Weather Forecast

Advertisements
Track Severe Weather on mobile